sensor_id;sensor_type;location;lat;lon;timestamp;P1;durP1;ratioP1;P2;durP2;ratioP2
982;SDS011;480;48.124;11.578;2022-08-24T00:00:03;5.00;;;4.60;;
982;SDS011;480;48.124;11.578;2022-08-24T00:02:33;3.40;;;3.20;;
982;SDS011;480;48.124;11.578;2022-08-24T00:05:00;3.57;;;3.10;;
982;SDS011;480;48.124;11.578;2022-08-24T00:07:28;3.70;;;3.40;;
982;SDS011;480;48.124;11.578;2022-08-24T00:09:56;3.97;;;3.67;;
982;SDS011;480;48.124;11.578;2022-08-24T00:12:24;3.37;;;3.17;;
982;SDS011;480;48.124;11.578;2022-08-24T00:14:51;3.47;;;3.23;;
982;SDS011;480;48.124;11.578;2022-08-24T00:17:19;3.70;;;3.40;;
982;SDS011;480;48.124;11.578;2022-08-24T00:19:47;3.80;;;3.50;;
982;SDS011;480;48.124;11.578;2022-08-24T00:22:14;3.67;;;3.37;;
982;SDS011;480;48.124;11.578;2022-08-24T00:24:41;3.97;;;3.67;;
982;SDS011;480;48.124;11.578;2022-08-24T00:27:08;3.90;;;3.70;;
982;SDS011;480;48.124;11.578;2022-08-24T00:29:36;4.40;;;4.00;;
982;SDS011;480;48.124;11.578;2022-08-24T00:32:04;3.77;;;3.47;;
982;SDS011;480;48.124;11.578;2022-08-24T00:34:31;3.90;;;3.50;;
982;SDS011;480;48.124;11.578;2022-08-24T00:36:59;3.93;;;3.67;;
982;SDS011;480;48.124;11.578;2022-08-24T00:39:27;4.13;;;3.20;;
982;SDS011;480;48.124;11.578;2022-08-24T00:41:54;3.50;;;3.20;;
982;SDS011;480;48.124;11.578;2022-08-24T00:44:21;3.77;;;3.57;;
982;SDS011;480;48.124;11.578;2022-08-24T00:46:49;3.20;;;3.00;;
982;SDS011;480;48.124;11.578;2022-08-24T00:49:21;4.50;;;3.63;;
982;SDS011;480;48.124;11.578;2022-08-24T00:51:55;3.97;;;3.57;;
982;SDS011;480;48.124;11.578;2022-08-24T00:54:27;4.03;;;3.73;;
982;SDS011;480;48.124;11.578;2022-08-24T00:56:57;4.03;;;3.73;;
982;SDS011;480;48.124;11.578;2022-08-24T00:59:28;3.43;;;3.10;;
982;SDS011;480;48.124;11.578;2022-08-24T01:02:00;3.83;;;3.30;;
982;SDS011;480;48.124;11.578;2022-08-24T01:04:31;3.97;;;3.57;;
982;SDS011;480;48.124;11.578;2022-08-24T01:07:01;3.87;;;3.57;;
982;SDS011;480;48.124;11.578;2022-08-24T01:09:30;2.80;;;2.60;;
982;SDS011;480;48.124;11.578;2022-08-24T01:11:57;3.70;;;3.40;;
982;SDS011;480;48.124;11.578;2022-08-24T01:14:24;4.10;;;3.80;;
982;SDS011;480;48.124;11.578;2022-08-24T01:16:51;3.20;;;3.00;;
982;SDS011;480;48.124;11.578;2022-08-24T01:19:35;2.80;;;2.60;;
982;SDS011;480;48.124;11.578;2022-08-24T01:22:09;3.43;;;3.13;;
982;SDS011;480;48.124;11.578;2022-08-24T01:24:48;3.40;;;3.13;;
982;SDS011;480;48.124;11.578;2022-08-24T01:27:15;3.73;;;3.43;;
982;SDS011;480;48.124;11.578;2022-08-24T01:29:43;4.07;;;3.77;;
982;SDS011;480;48.124;11.578;2022-08-24T01:32:11;3.27;;;2.97;;
982;SDS011;480;48.124;11.578;2022-08-24T01:34:38;3.77;;;3.47;;
982;SDS011;480;48.124;11.578;2022-08-24T01:37:05;3.87;;;2.80;;
982;SDS011;480;48.124;11.578;2022-08-24T01:39:36;2.90;;;2.70;;
982;SDS011;480;48.124;11.578;2022-08-24T01:42:08;3.77;;;3.47;;
982;SDS011;480;48.124;11.578;2022-08-24T01:44:37;3.83;;;3.53;;
982;SDS011;480;48.124;11.578;2022-08-24T01:47:07;3.97;;;3.60;;
982;SDS011;480;48.124;11.578;2022-08-24T01:49:36;3.77;;;3.30;;
982;SDS011;480;48.124;11.578;2022-08-24T01:52:06;3.93;;;3.63;;
982;SDS011;480;48.124;11.578;2022-08-24T01:54:35;3.13;;;2.90;;
982;SDS011;480;48.124;11.578;2022-08-24T01:57:03;3.87;;;3.47;;
982;SDS011;480;48.124;11.578;2022-08-24T01:59:32;3.47;;;3.27;;
982;SDS011;480;48.124;11.578;2022-08-24T02:02:00;4.03;;;3.73;;
982;SDS011;480;48.124;11.578;2022-08-24T02:04:31;3.77;;;3.50;;
982;SDS011;480;48.124;11.578;2022-08-24T02:06:59;3.57;;;3.37;;
982;SDS011;480;48.124;11.578;2022-08-24T02:09:26;4.10;;;3.80;;
982;SDS011;480;48.124;11.578;2022-08-24T02:11:53;3.80;;;3.60;;
982;SDS011;480;48.124;11.578;2022-08-24T02:14:20;4.10;;;3.80;;
982;SDS011;480;48.124;11.578;2022-08-24T02:16:49;3.73;;;3.47;;
982;SDS011;480;48.124;11.578;2022-08-24T02:19:16;3.77;;;3.37;;
982;SDS011;480;48.124;11.578;2022-08-24T02:21:43;3.77;;;3.47;;
982;SDS011;480;48.124;11.578;2022-08-24T02:24:10;4.50;;;4.20;;
982;SDS011;480;48.124;11.578;2022-08-24T02:26:37;4.23;;;3.93;;
982;SDS011;480;48.124;11.578;2022-08-24T02:29:04;3.90;;;3.50;;
982;SDS011;480;48.124;11.578;2022-08-24T02:31:32;3.50;;;3.30;;
982;SDS011;480;48.124;11.578;2022-08-24T02:34:02;3.60;;;3.30;;
982;SDS011;480;48.124;11.578;2022-08-24T02:36:30;4.90;;;4.50;;
982;SDS011;480;48.124;11.578;2022-08-24T02:38:57;3.70;;;3.50;;
982;SDS011;480;48.124;11.578;2022-08-24T02:41:24;3.83;;;3.53;;
982;SDS011;480;48.124;11.578;2022-08-24T02:43:52;5.57;;;4.67;;
982;SDS011;480;48.124;11.578;2022-08-24T02:46:20;4.00;;;3.70;;
982;SDS011;480;48.124;11.578;2022-08-24T02:48:49;4.90;;;4.13;;
982;SDS011;480;48.124;11.578;2022-08-24T02:51:18;3.73;;;3.53;;
982;SDS011;480;48.124;11.578;2022-08-24T02:53:46;3.53;;;3.23;;
982;SDS011;480;48.124;11.578;2022-08-24T02:56:13;3.90;;;3.60;;
982;SDS011;480;48.124;11.578;2022-08-24T02:58:41;4.60;;;4.23;;
982;SDS011;480;48.124;11.578;2022-08-24T03:01:08;4.00;;;3.73;;
982;SDS011;480;48.124;11.578;2022-08-24T03:03:35;3.90;;;3.60;;
982;SDS011;480;48.124;11.578;2022-08-24T03:06:03;4.30;;;3.90;;
982;SDS011;480;48.124;11.578;2022-08-24T03:08:32;4.00;;;3.77;;
982;SDS011;480;48.124;11.578;2022-08-24T03:10:59;3.90;;;3.60;;
982;SDS011;480;48.124;11.578;2022-08-24T03:13:26;4.10;;;3.80;;
982;SDS011;480;48.124;11.578;2022-08-24T03:15:54;4.40;;;4.10;;
982;SDS011;480;48.124;11.578;2022-08-24T03:18:22;3.80;;;3.50;;
982;SDS011;480;48.124;11.578;2022-08-24T03:20:50;3.67;;;3.37;;
982;SDS011;480;48.124;11.578;2022-08-24T03:23:17;3.87;;;3.57;;
982;SDS011;480;48.124;11.578;2022-08-24T03:25:46;4.17;;;3.87;;
982;SDS011;480;48.124;11.578;2022-08-24T03:28:13;4.20;;;3.80;;
982;SDS011;480;48.124;11.578;2022-08-24T03:30:41;4.27;;;3.80;;
982;SDS011;480;48.124;11.578;2022-08-24T03:33:08;4.53;;;4.20;;
982;SDS011;480;48.124;11.578;2022-08-24T03:35:36;3.87;;;3.57;;
982;SDS011;480;48.124;11.578;2022-08-24T03:38:03;3.83;;;3.53;;
982;SDS011;480;48.124;11.578;2022-08-24T03:40:31;3.53;;;3.20;;
982;SDS011;480;48.124;11.578;2022-08-24T03:43:00;3.20;;;3.00;;
982;SDS011;480;48.124;11.578;2022-08-24T03:45:28;4.27;;;3.97;;
982;SDS011;480;48.124;11.578;2022-08-24T03:47:55;3.43;;;3.13;;
982;SDS011;480;48.124;11.578;2022-08-24T03:50:22;4.67;;;4.27;;
982;SDS011;480;48.124;11.578;2022-08-24T03:52:51;3.70;;;3.50;;
982;SDS011;480;48.124;11.578;2022-08-24T03:55:18;4.00;;;3.70;;
982;SDS011;480;48.124;11.578;2022-08-24T03:57:46;4.23;;;3.90;;
982;SDS011;480;48.124;11.578;2022-08-24T04:00:14;4.93;;;4.53;;
982;SDS011;480;48.124;11.578;2022-08-24T04:02:42;3.70;;;3.40;;
982;SDS011;480;48.124;11.578;2022-08-24T04:05:09;3.87;;;3.57;;
982;SDS011;480;48.124;11.578;2022-08-24T04:07:37;4.53;;;4.13;;
982;SDS011;480;48.124;11.578;2022-08-24T04:10:04;3.70;;;3.40;;
982;SDS011;480;48.124;11.578;2022-08-24T04:12:32;4.77;;;4.37;;
982;SDS011;480;48.124;11.578;2022-08-24T04:14:59;4.43;;;4.03;;
982;SDS011;480;48.124;11.578;2022-08-24T04:17:27;4.80;;;4.30;;
982;SDS011;480;48.124;11.578;2022-08-24T04:19:54;4.03;;;3.83;;
982;SDS011;480;48.124;11.578;2022-08-24T04:22:24;4.80;;;4.50;;
982;SDS011;480;48.124;11.578;2022-08-24T04:24:52;4.73;;;4.30;;
982;SDS011;480;48.124;11.578;2022-08-24T04:27:19;5.43;;;4.93;;
982;SDS011;480;48.124;11.578;2022-08-24T04:29:46;4.80;;;4.50;;
982;SDS011;480;48.124;11.578;2022-08-24T04:32:13;5.47;;;4.97;;
982;SDS011;480;48.124;11.578;2022-08-24T04:34:42;4.27;;;4.07;;
982;SDS011;480;48.124;11.578;2022-08-24T04:37:09;5.07;;;4.67;;
982;SDS011;480;48.124;11.578;2022-08-24T04:39:37;4.90;;;4.60;;
982;SDS011;480;48.124;11.578;2022-08-24T04:42:04;5.43;;;4.90;;
982;SDS011;480;48.124;11.578;2022-08-24T04:44:31;4.70;;;4.30;;
982;SDS011;480;48.124;11.578;2022-08-24T04:46:59;5.50;;;4.73;;
982;SDS011;480;48.124;11.578;2022-08-24T04:49:26;5.03;;;4.63;;
982;SDS011;480;48.124;11.578;2022-08-24T04:51:55;7.37;;;5.30;;
982;SDS011;480;48.124;11.578;2022-08-24T04:54:22;5.10;;;4.67;;
982;SDS011;480;48.124;11.578;2022-08-24T04:56:49;5.13;;;4.43;;
982;SDS011;480;48.124;11.578;2022-08-24T04:59:16;5.27;;;4.87;;
982;SDS011;480;48.124;11.578;2022-08-24T05:01:43;5.60;;;4.97;;
982;SDS011;480;48.124;11.578;2022-08-24T05:04:10;5.83;;;5.40;;
982;SDS011;480;48.124;11.578;2022-08-24T05:06:39;5.20;;;4.80;;
982;SDS011;480;48.124;11.578;2022-08-24T05:09:08;4.33;;;3.97;;
982;SDS011;480;48.124;11.578;2022-08-24T05:11:35;4.70;;;4.40;;
982;SDS011;480;48.124;11.578;2022-08-24T05:14:04;4.77;;;4.37;;
982;SDS011;480;48.124;11.578;2022-08-24T05:16:32;4.70;;;4.30;;
982;SDS011;480;48.124;11.578;2022-08-24T05:19:02;4.80;;;4.40;;
982;SDS011;480;48.124;11.578;2022-08-24T05:21:31;6.83;;;4.33;;
982;SDS011;480;48.124;11.578;2022-08-24T05:23:58;5.50;;;4.73;;
982;SDS011;480;48.124;11.578;2022-08-24T05:26:27;5.53;;;4.43;;
982;SDS011;480;48.124;11.578;2022-08-24T05:28:55;5.07;;;4.60;;
982;SDS011;480;48.124;11.578;2022-08-24T05:31:26;5.80;;;5.30;;
982;SDS011;480;48.124;11.578;2022-08-24T05:33:54;5.63;;;5.17;;
982;SDS011;480;48.124;11.578;2022-08-24T05:36:23;5.73;;;4.43;;
982;SDS011;480;48.124;11.578;2022-08-24T05:38:52;4.87;;;4.57;;
982;SDS011;480;48.124;11.578;2022-08-24T05:41:21;4.80;;;4.40;;
982;SDS011;480;48.124;11.578;2022-08-24T05:43:49;5.37;;;4.87;;
982;SDS011;480;48.124;11.578;2022-08-24T05:46:16;4.90;;;4.40;;
982;SDS011;480;48.124;11.578;2022-08-24T05:48:44;6.03;;;4.53;;
982;SDS011;480;48.124;11.578;2022-08-24T05:51:11;4.87;;;4.37;;
982;SDS011;480;48.124;11.578;2022-08-24T05:53:39;5.40;;;4.40;;
982;SDS011;480;48.124;11.578;2022-08-24T05:56:08;5.20;;;4.70;;
982;SDS011;480;48.124;11.578;2022-08-24T05:58:37;4.67;;;4.27;;
982;SDS011;480;48.124;11.578;2022-08-24T06:01:06;5.10;;;4.60;;
982;SDS011;480;48.124;11.578;2022-08-24T06:03:34;4.60;;;4.20;;
982;SDS011;480;48.124;11.578;2022-08-24T06:06:02;6.43;;;4.70;;
982;SDS011;480;48.124;11.578;2022-08-24T06:08:30;4.63;;;4.23;;
982;SDS011;480;48.124;11.578;2022-08-24T06:10:57;4.90;;;4.43;;
982;SDS011;480;48.124;11.578;2022-08-24T06:13:26;4.80;;;4.40;;
982;SDS011;480;48.124;11.578;2022-08-24T06:16:00;7.90;;;4.50;;
982;SDS011;480;48.124;11.578;2022-08-24T06:18:30;4.87;;;4.00;;
982;SDS011;480;48.124;11.578;2022-08-24T06:20:58;4.60;;;4.30;;
982;SDS011;480;48.124;11.578;2022-08-24T06:23:30;3.87;;;3.60;;
982;SDS011;480;48.124;11.578;2022-08-24T06:25:57;4.47;;;4.03;;
982;SDS011;480;48.124;11.578;2022-08-24T06:28:41;6.00;;;4.90;;
982;SDS011;480;48.124;11.578;2022-08-24T06:31:08;4.10;;;3.90;;
982;SDS011;480;48.124;11.578;2022-08-24T06:33:37;4.70;;;4.10;;
982;SDS011;480;48.124;11.578;2022-08-24T06:36:04;4.80;;;4.40;;
982;SDS011;480;48.124;11.578;2022-08-24T06:38:32;3.63;;;3.33;;
982;SDS011;480;48.124;11.578;2022-08-24T06:40:59;3.93;;;3.53;;
982;SDS011;480;48.124;11.578;2022-08-24T06:43:26;4.10;;;3.47;;
982;SDS011;480;48.124;11.578;2022-08-24T06:45:54;4.40;;;4.00;;
982;SDS011;480;48.124;11.578;2022-08-24T06:48:22;4.37;;;3.53;;
982;SDS011;480;48.124;11.578;2022-08-24T06:50:50;6.13;;;4.23;;
982;SDS011;480;48.124;11.578;2022-08-24T06:53:18;3.17;;;2.97;;
982;SDS011;480;48.124;11.578;2022-08-24T06:55:46;4.70;;;3.50;;
982;SDS011;480;48.124;11.578;2022-08-24T06:58:15;4.73;;;4.33;;
982;SDS011;480;48.124;11.578;2022-08-24T07:00:42;3.50;;;3.23;;
982;SDS011;480;48.124;11.578;2022-08-24T07:03:09;3.90;;;3.70;;
982;SDS011;480;48.124;11.578;2022-08-24T07:05:37;3.70;;;3.40;;
982;SDS011;480;48.124;11.578;2022-08-24T07:08:06;3.30;;;3.00;;
982;SDS011;480;48.124;11.578;2022-08-24T07:10:33;4.10;;;3.70;;
982;SDS011;480;48.124;11.578;2022-08-24T07:13:01;3.70;;;3.20;;
982;SDS011;480;48.124;11.578;2022-08-24T07:15:28;3.87;;;3.57;;
982;SDS011;480;48.124;11.578;2022-08-24T07:17:55;3.93;;;3.47;;
982;SDS011;480;48.124;11.578;2022-08-24T07:20:22;3.97;;;3.10;;
982;SDS011;480;48.124;11.578;2022-08-24T07:22:50;3.10;;;2.90;;
982;SDS011;480;48.124;11.578;2022-08-24T07:25:18;3.70;;;3.40;;
982;SDS011;480;48.124;11.578;2022-08-24T07:27:45;4.10;;;3.70;;
982;SDS011;480;48.124;11.578;2022-08-24T07:30:13;4.20;;;3.80;;
982;SDS011;480;48.124;11.578;2022-08-24T07:32:41;2.83;;;2.63;;
982;SDS011;480;48.124;11.578;2022-08-24T07:35:08;3.87;;;3.50;;
982;SDS011;480;48.124;11.578;2022-08-24T07:37:36;2.83;;;2.70;;
982;SDS011;480;48.124;11.578;2022-08-24T07:40:03;3.30;;;3.10;;
982;SDS011;480;48.124;11.578;2022-08-24T07:42:32;3.93;;;3.10;;
982;SDS011;480;48.124;11.578;2022-08-24T07:44:59;8.87;;;4.47;;
982;SDS011;480;48.124;11.578;2022-08-24T07:47:27;3.80;;;3.47;;
982;SDS011;480;48.124;11.578;2022-08-24T07:49:54;3.10;;;2.90;;
982;SDS011;480;48.124;11.578;2022-08-24T07:52:21;3.27;;;3.07;;
982;SDS011;480;48.124;11.578;2022-08-24T07:54:48;4.20;;;3.63;;
982;SDS011;480;48.124;11.578;2022-08-24T07:57:15;3.60;;;3.30;;
982;SDS011;480;48.124;11.578;2022-08-24T07:59:44;4.93;;;3.40;;
982;SDS011;480;48.124;11.578;2022-08-24T08:02:11;3.03;;;2.83;;
982;SDS011;480;48.124;11.578;2022-08-24T08:04:39;3.40;;;3.20;;
982;SDS011;480;48.124;11.578;2022-08-24T08:07:06;3.87;;;3.57;;
982;SDS011;480;48.124;11.578;2022-08-24T08:09:35;3.27;;;3.07;;
982;SDS011;480;48.124;11.578;2022-08-24T08:12:03;4.00;;;3.70;;
982;SDS011;480;48.124;11.578;2022-08-24T08:14:31;6.47;;;4.10;;
982;SDS011;480;48.124;11.578;2022-08-24T08:16:59;5.37;;;3.60;;
982;SDS011;480;48.124;11.578;2022-08-24T08:19:27;5.83;;;3.60;;
982;SDS011;480;48.124;11.578;2022-08-24T08:21:54;3.27;;;2.97;;
982;SDS011;480;48.124;11.578;2022-08-24T08:24:39;3.03;;;2.83;;
982;SDS011;480;48.124;11.578;2022-08-24T08:27:07;3.93;;;3.63;;
982;SDS011;480;48.124;11.578;2022-08-24T08:29:35;4.60;;;4.13;;
982;SDS011;480;48.124;11.578;2022-08-24T08:32:07;3.43;;;3.20;;
982;SDS011;480;48.124;11.578;2022-08-24T08:34:36;3.77;;;3.30;;
982;SDS011;480;48.124;11.578;2022-08-24T08:37:03;3.30;;;3.10;;
982;SDS011;480;48.124;11.578;2022-08-24T08:39:32;5.63;;;3.90;;
982;SDS011;480;48.124;11.578;2022-08-24T08:45:10;3.63;;;3.00;;
982;SDS011;480;48.124;11.578;2022-08-24T08:54:01;3.77;;;3.53;;
982;SDS011;480;48.124;11.578;2022-08-24T08:56:39;5.30;;;3.50;;
982;SDS011;480;48.124;11.578;2022-08-24T08:59:21;4.13;;;3.40;;
982;SDS011;480;48.124;11.578;2022-08-24T09:02:05;3.67;;;3.37;;
982;SDS011;480;48.124;11.578;2022-08-24T09:04:52;4.50;;;4.10;;
982;SDS011;480;48.124;11.578;2022-08-24T09:07:32;4.53;;;4.03;;
982;SDS011;480;48.124;11.578;2022-08-24T09:10:20;3.83;;;3.53;;
982;SDS011;480;48.124;11.578;2022-08-24T09:13:05;3.90;;;3.60;;
982;SDS011;480;48.124;11.578;2022-08-24T09:15:59;4.47;;;4.13;;
982;SDS011;480;48.124;11.578;2022-08-24T09:21:47;4.20;;;3.80;;
982;SDS011;480;48.124;11.578;2022-08-24T09:24:25;3.90;;;3.60;;
982;SDS011;480;48.124;11.578;2022-08-24T09:27:21;5.53;;;3.33;;
982;SDS011;480;48.124;11.578;2022-08-24T09:30:00;3.80;;;3.50;;
982;SDS011;480;48.124;11.578;2022-08-24T09:35:39;5.10;;;3.03;;
982;SDS011;480;48.124;11.578;2022-08-24T09:38:28;3.60;;;3.10;;
982;SDS011;480;48.124;11.578;2022-08-24T09:41:18;3.90;;;3.60;;
982;SDS011;480;48.124;11.578;2022-08-24T09:44:06;3.90;;;3.50;;
982;SDS011;480;48.124;11.578;2022-08-24T09:47:01;4.10;;;3.80;;
982;SDS011;480;48.124;11.578;2022-08-24T09:49:55;10.93;;;4.10;;
982;SDS011;480;48.124;11.578;2022-08-24T09:55:45;3.27;;;3.07;;
982;SDS011;480;48.124;11.578;2022-08-24T09:58:35;3.20;;;3.10;;
982;SDS011;480;48.124;11.578;2022-08-24T10:01:10;4.07;;;3.73;;
982;SDS011;480;48.124;11.578;2022-08-24T10:03:50;3.20;;;3.00;;
982;SDS011;480;48.124;11.578;2022-08-24T10:06:33;4.10;;;3.67;;
982;SDS011;480;48.124;11.578;2022-08-24T10:09:12;5.27;;;3.30;;
982;SDS011;480;48.124;11.578;2022-08-24T10:12:01;3.43;;;3.23;;
982;SDS011;480;48.124;11.578;2022-08-24T10:14:42;3.80;;;3.50;;
982;SDS011;480;48.124;11.578;2022-08-24T10:17:18;4.03;;;3.80;;
982;SDS011;480;48.124;11.578;2022-08-24T10:20:00;3.93;;;3.53;;
982;SDS011;480;48.124;11.578;2022-08-24T10:22:40;3.67;;;3.47;;
982;SDS011;480;48.124;11.578;2022-08-24T10:25:27;3.30;;;3.10;;
982;SDS011;480;48.124;11.578;2022-08-24T10:28:02;3.20;;;3.00;;
982;SDS011;480;48.124;11.578;2022-08-24T10:31:02;3.80;;;3.50;;
982;SDS011;480;48.124;11.578;2022-08-24T10:33:32;5.57;;;3.60;;
982;SDS011;480;48.124;11.578;2022-08-24T10:36:14;3.63;;;3.33;;
982;SDS011;480;48.124;11.578;2022-08-24T10:38:55;2.97;;;2.80;;
982;SDS011;480;48.124;11.578;2022-08-24T10:42:12;4.57;;;4.27;;
982;SDS011;480;48.124;11.578;2022-08-24T10:45:19;3.60;;;3.40;;
982;SDS011;480;48.124;11.578;2022-08-24T10:48:12;3.87;;;3.57;;
982;SDS011;480;48.124;11.578;2022-08-24T10:51:07;3.73;;;3.53;;
982;SDS011;480;48.124;11.578;2022-08-24T10:53:46;3.20;;;3.00;;
982;SDS011;480;48.124;11.578;2022-08-24T10:56:15;3.13;;;2.93;;
982;SDS011;480;48.124;11.578;2022-08-24T10:58:49;3.77;;;3.50;;
982;SDS011;480;48.124;11.578;2022-08-24T11:01:25;3.80;;;3.50;;
982;SDS011;480;48.124;11.578;2022-08-24T11:03:57;4.80;;;4.40;;
982;SDS011;480;48.124;11.578;2022-08-24T11:06:27;4.23;;;3.93;;
982;SDS011;480;48.124;11.578;2022-08-24T11:08:58;3.70;;;3.50;;
982;SDS011;480;48.124;11.578;2022-08-24T11:11:30;8.80;;;3.40;;
982;SDS011;480;48.124;11.578;2022-08-24T11:14:00;3.73;;;3.50;;
982;SDS011;480;48.124;11.578;2022-08-24T11:16:31;4.17;;;3.87;;
982;SDS011;480;48.124;11.578;2022-08-24T11:19:02;3.90;;;3.60;;
982;SDS011;480;48.124;11.578;2022-08-24T11:21:33;3.90;;;3.60;;
982;SDS011;480;48.124;11.578;2022-08-24T11:24:12;3.80;;;3.50;;
982;SDS011;480;48.124;11.578;2022-08-24T11:26:51;5.73;;;3.30;;
982;SDS011;480;48.124;11.578;2022-08-24T11:29:21;3.67;;;3.37;;
982;SDS011;480;48.124;11.578;2022-08-24T11:31:57;4.00;;;3.70;;
982;SDS011;480;48.124;11.578;2022-08-24T11:34:35;3.60;;;3.17;;
982;SDS011;480;48.124;11.578;2022-08-24T11:37:04;3.47;;;3.17;;
982;SDS011;480;48.124;11.578;2022-08-24T11:39:36;3.43;;;3.13;;
982;SDS011;480;48.124;11.578;2022-08-24T11:42:07;4.67;;;4.13;;
982;SDS011;480;48.124;11.578;2022-08-24T11:44:43;2.90;;;2.70;;
982;SDS011;480;48.124;11.578;2022-08-24T11:50:30;3.50;;;3.20;;
982;SDS011;480;48.124;11.578;2022-08-24T11:53:04;3.57;;;3.27;;
982;SDS011;480;48.124;11.578;2022-08-24T11:55:38;3.50;;;3.30;;
982;SDS011;480;48.124;11.578;2022-08-24T11:58:10;4.37;;;3.40;;
982;SDS011;480;48.124;11.578;2022-08-24T12:00:44;3.60;;;3.40;;
982;SDS011;480;48.124;11.578;2022-08-24T12:03:32;3.13;;;2.93;;
982;SDS011;480;48.124;11.578;2022-08-24T12:06:12;3.50;;;3.20;;
982;SDS011;480;48.124;11.578;2022-08-24T12:08:49;3.43;;;3.13;;
982;SDS011;480;48.124;11.578;2022-08-24T12:11:22;4.03;;;3.37;;
982;SDS011;480;48.124;11.578;2022-08-24T12:13:59;4.13;;;3.57;;
982;SDS011;480;48.124;11.578;2022-08-24T12:16:32;3.60;;;3.30;;
982;SDS011;480;48.124;11.578;2022-08-24T12:19:06;3.47;;;3.17;;
982;SDS011;480;48.124;11.578;2022-08-24T12:21:40;3.47;;;3.17;;
982;SDS011;480;48.124;11.578;2022-08-24T12:24:12;3.43;;;3.13;;
982;SDS011;480;48.124;11.578;2022-08-24T12:26:44;3.13;;;2.87;;
982;SDS011;480;48.124;11.578;2022-08-24T12:29:17;4.53;;;3.53;;
982;SDS011;480;48.124;11.578;2022-08-24T12:31:49;3.30;;;3.00;;
982;SDS011;480;48.124;11.578;2022-08-24T12:34:21;3.50;;;3.30;;
982;SDS011;480;48.124;11.578;2022-08-24T12:36:56;3.40;;;3.20;;
982;SDS011;480;48.124;11.578;2022-08-24T12:39:30;2.80;;;2.60;;
982;SDS011;480;48.124;11.578;2022-08-24T12:42:05;3.20;;;3.00;;
982;SDS011;480;48.124;11.578;2022-08-24T12:44:41;3.53;;;3.33;;
982;SDS011;480;48.124;11.578;2022-08-24T12:47:16;2.93;;;2.73;;
982;SDS011;480;48.124;11.578;2022-08-24T12:49:50;3.33;;;3.13;;
982;SDS011;480;48.124;11.578;2022-08-24T12:52:41;3.27;;;3.00;;
982;SDS011;480;48.124;11.578;2022-08-24T12:55:26;2.97;;;2.77;;
982;SDS011;480;48.124;11.578;2022-08-24T12:58:29;2.87;;;2.67;;
982;SDS011;480;48.124;11.578;2022-08-24T13:01:19;3.33;;;3.13;;
982;SDS011;480;48.124;11.578;2022-08-24T13:03:48;8.60;;;3.80;;
982;SDS011;480;48.124;11.578;2022-08-24T13:06:35;2.87;;;2.67;;
982;SDS011;480;48.124;11.578;2022-08-24T13:09:08;3.47;;;3.27;;
982;SDS011;480;48.124;11.578;2022-08-24T13:11:40;7.33;;;3.07;;
982;SDS011;480;48.124;11.578;2022-08-24T13:14:16;3.60;;;3.40;;
982;SDS011;480;48.124;11.578;2022-08-24T13:16:51;3.30;;;3.10;;
982;SDS011;480;48.124;11.578;2022-08-24T13:19:38;3.27;;;3.07;;
982;SDS011;480;48.124;11.578;2022-08-24T13:25:24;2.37;;;2.27;;
982;SDS011;480;48.124;11.578;2022-08-24T13:28:13;3.30;;;3.10;;
982;SDS011;480;48.124;11.578;2022-08-24T13:31:15;2.90;;;2.70;;
982;SDS011;480;48.124;11.578;2022-08-24T13:33:48;2.57;;;2.47;;
982;SDS011;480;48.124;11.578;2022-08-24T13:42:35;3.97;;;3.23;;
982;SDS011;480;48.124;11.578;2022-08-24T13:45:33;2.50;;;2.33;;
982;SDS011;480;48.124;11.578;2022-08-24T13:48:13;2.93;;;2.70;;
982;SDS011;480;48.124;11.578;2022-08-24T13:50:56;2.43;;;2.23;;
982;SDS011;480;48.124;11.578;2022-08-24T13:53:46;2.40;;;2.20;;
982;SDS011;480;48.124;11.578;2022-08-24T13:56:26;2.63;;;2.50;;
982;SDS011;480;48.124;11.578;2022-08-24T13:59:03;3.07;;;2.77;;
982;SDS011;480;48.124;11.578;2022-08-24T14:01:35;2.90;;;2.70;;
982;SDS011;480;48.124;11.578;2022-08-24T14:04:14;6.27;;;2.83;;
982;SDS011;480;48.124;11.578;2022-08-24T14:06:59;2.53;;;2.33;;
982;SDS011;480;48.124;11.578;2022-08-24T14:09:35;3.03;;;2.83;;
982;SDS011;480;48.124;11.578;2022-08-24T14:12:15;2.30;;;2.13;;
982;SDS011;480;48.124;11.578;2022-08-24T14:14:57;2.50;;;2.33;;
982;SDS011;480;48.124;11.578;2022-08-24T14:17:40;2.67;;;2.47;;
982;SDS011;480;48.124;11.578;2022-08-24T14:20:23;2.53;;;2.30;;
982;SDS011;480;48.124;11.578;2022-08-24T14:23:16;2.37;;;2.10;;
982;SDS011;480;48.124;11.578;2022-08-24T14:35:13;1.90;;;1.80;;
982;SDS011;480;48.124;11.578;2022-08-24T14:38:13;2.70;;;2.50;;
982;SDS011;480;48.124;11.578;2022-08-24T14:41:02;3.00;;;2.43;;
982;SDS011;480;48.124;11.578;2022-08-24T14:46:38;2.80;;;2.60;;
982;SDS011;480;48.124;11.578;2022-08-24T14:49:19;3.40;;;2.50;;
982;SDS011;480;48.124;11.578;2022-08-24T14:52:05;2.97;;;2.67;;
982;SDS011;480;48.124;11.578;2022-08-24T14:54:55;2.63;;;2.43;;
982;SDS011;480;48.124;11.578;2022-08-24T15:00:33;2.43;;;2.27;;
982;SDS011;480;48.124;11.578;2022-08-24T15:03:23;2.43;;;2.23;;
982;SDS011;480;48.124;11.578;2022-08-24T15:06:18;2.83;;;2.10;;
982;SDS011;480;48.124;11.578;2022-08-24T15:08:53;2.70;;;2.50;;
982;SDS011;480;48.124;11.578;2022-08-24T15:11:34;2.67;;;2.47;;
982;SDS011;480;48.124;11.578;2022-08-24T15:14:06;4.50;;;3.43;;
982;SDS011;480;48.124;11.578;2022-08-24T15:16:42;3.10;;;2.90;;
982;SDS011;480;48.124;11.578;2022-08-24T15:19:14;3.10;;;2.80;;
982;SDS011;480;48.124;11.578;2022-08-24T15:21:51;2.90;;;2.70;;
982;SDS011;480;48.124;11.578;2022-08-24T15:27:14;2.20;;;2.10;;
982;SDS011;480;48.124;11.578;2022-08-24T15:29:51;2.57;;;2.33;;
982;SDS011;480;48.124;11.578;2022-08-24T15:32:21;4.43;;;2.53;;
982;SDS011;480;48.124;11.578;2022-08-24T15:34:51;2.67;;;2.37;;
982;SDS011;480;48.124;11.578;2022-08-24T15:37:30;2.97;;;2.77;;
982;SDS011;480;48.124;11.578;2022-08-24T15:40:15;2.80;;;2.60;;
982;SDS011;480;48.124;11.578;2022-08-24T15:42:46;3.33;;;3.00;;
982;SDS011;480;48.124;11.578;2022-08-24T15:45:15;3.53;;;3.20;;
982;SDS011;480;48.124;11.578;2022-08-24T15:47:46;2.43;;;2.23;;
982;SDS011;480;48.124;11.578;2022-08-24T15:50:19;3.40;;;2.80;;
982;SDS011;480;48.124;11.578;2022-08-24T15:52:50;2.53;;;2.33;;
982;SDS011;480;48.124;11.578;2022-08-24T15:55:34;2.73;;;2.53;;
982;SDS011;480;48.124;11.578;2022-08-24T15:58:11;2.73;;;2.53;;
982;SDS011;480;48.124;11.578;2022-08-24T16:01:19;2.97;;;2.60;;
982;SDS011;480;48.124;11.578;2022-08-24T16:04:07;2.60;;;2.43;;
982;SDS011;480;48.124;11.578;2022-08-24T16:06:37;3.67;;;3.37;;
982;SDS011;480;48.124;11.578;2022-08-24T16:09:09;2.40;;;2.20;;
982;SDS011;480;48.124;11.578;2022-08-24T16:11:59;3.33;;;3.03;;
982;SDS011;480;48.124;11.578;2022-08-24T16:14:32;2.97;;;2.77;;
982;SDS011;480;48.124;11.578;2022-08-24T16:17:17;2.80;;;2.60;;
982;SDS011;480;48.124;11.578;2022-08-24T16:19:52;2.70;;;2.50;;
982;SDS011;480;48.124;11.578;2022-08-24T16:22:28;3.13;;;2.93;;
982;SDS011;480;48.124;11.578;2022-08-24T16:28:02;2.57;;;2.30;;
982;SDS011;480;48.124;11.578;2022-08-24T16:30:37;2.90;;;2.60;;
982;SDS011;480;48.124;11.578;2022-08-24T16:33:31;2.60;;;2.43;;
982;SDS011;480;48.124;11.578;2022-08-24T16:36:08;3.37;;;3.10;;
982;SDS011;480;48.124;11.578;2022-08-24T16:38:37;2.30;;;2.20;;
982;SDS011;480;48.124;11.578;2022-08-24T16:41:06;3.43;;;3.13;;
982;SDS011;480;48.124;11.578;2022-08-24T16:43:39;4.27;;;3.90;;
982;SDS011;480;48.124;11.578;2022-08-24T16:46:08;2.87;;;2.67;;
982;SDS011;480;48.124;11.578;2022-08-24T16:48:36;2.10;;;1.90;;
982;SDS011;480;48.124;11.578;2022-08-24T16:51:04;3.97;;;3.67;;
982;SDS011;480;48.124;11.578;2022-08-24T16:53:32;2.83;;;2.57;;
982;SDS011;480;48.124;11.578;2022-08-24T16:56:00;2.57;;;2.40;;
982;SDS011;480;48.124;11.578;2022-08-24T16:58:30;2.60;;;2.40;;